Terminal Aerodrome Forecast
Issued by NWS

Home | Current Version | Previous Version | Text Only | Print | Product List | Glossary Off
Versions: 1 2 3 4 5 6 7 8 9 10 11 12 13 14 15 16 17 18 19 20 21 22 23 24 25 26 27 28 29 30 31 32 33 34

164
FTUS43 KLOT 152010 AAB
TAFMDW
TAF AMD
KMDW 152010Z 1520/1618 28012KT P6SM BKN008 OVC015
     FM152130 29013G22KT P6SM SCT018 BKN025 BKN035
     FM152200 29015G26KT P6SM SCT025 SCT040
     FM160200 29016G27KT P6SM BKN018
     FM160700 29013G20KT P6SM SCT012 BKN018
     FM161300 33012KT P6SM BKN012=

USA.gov is the U.S. government's official web portal to all federal, state and local government web resources and services.